sensor_id;sensor_type;location;lat;lon;timestamp;temperature;humidity
79024;DHT22;70306;44.764;37.688;2024-02-23T00:00:39;7.46;69.39
79024;DHT22;70306;44.764;37.688;2024-02-23T00:01:41;7.47;69.38
79024;DHT22;70306;44.764;37.688;2024-02-23T00:02:43;7.51;69.38
79024;DHT22;70306;44.764;37.688;2024-02-23T00:03:45;7.54;69.27
79024;DHT22;70306;44.764;37.688;2024-02-23T00:04:47;7.54;69.19
79024;DHT22;70306;44.764;37.688;2024-02-23T00:05:49;7.55;69.03
79024;DHT22;70306;44.764;37.688;2024-02-23T00:06:51;7.57;68.86
79024;DHT22;70306;44.764;37.688;2024-02-23T00:07:53;7.51;69.48
79024;DHT22;70306;44.764;37.688;2024-02-23T00:08:55;7.47;69.95
79024;DHT22;70306;44.764;37.688;2024-02-23T00:09:57;7.51;69.79
79024;DHT22;70306;44.764;37.688;2024-02-23T00:10:59;7.52;69.83
79024;DHT22;70306;44.764;37.688;2024-02-23T00:12:01;7.52;69.71
79024;DHT22;70306;44.764;37.688;2024-02-23T00:13:04;7.55;69.64
79024;DHT22;70306;44.764;37.688;2024-02-23T00:14:06;7.60;69.62
79024;DHT22;70306;44.764;37.688;2024-02-23T00:15:08;7.60;69.89
79024;DHT22;70306;44.764;37.688;2024-02-23T00:16:10;7.62;69.81
79024;DHT22;70306;44.764;37.688;2024-02-23T00:17:13;7.65;69.66
79024;DHT22;70306;44.764;37.688;2024-02-23T00:18:15;7.67;69.48
79024;DHT22;70306;44.764;37.688;2024-02-23T00:19:18;7.65;69.30
79024;DHT22;70306;44.764;37.688;2024-02-23T00:20:21;7.68;69.37
79024;DHT22;70306;44.764;37.688;2024-02-23T00:21:23;7.68;69.23
79024;DHT22;70306;44.764;37.688;2024-02-23T00:22:25;7.69;69.33
79024;DHT22;70306;44.764;37.688;2024-02-23T00:23:27;7.71;69.17
79024;DHT22;70306;44.764;37.688;2024-02-23T00:24:30;7.69;68.95
79024;DHT22;70306;44.764;37.688;2024-02-23T00:25:32;7.72;68.57
79024;DHT22;70306;44.764;37.688;2024-02-23T00:26:34;7.72;68.72
79024;DHT22;70306;44.764;37.688;2024-02-23T00:27:36;7.77;68.76
79024;DHT22;70306;44.764;37.688;2024-02-23T00:28:38;7.77;68.92
79024;DHT22;70306;44.764;37.688;2024-02-23T00:29:40;7.78;69.27
79024;DHT22;70306;44.764;37.688;2024-02-23T00:30:42;7.77;69.11
79024;DHT22;70306;44.764;37.688;2024-02-23T00:31:44;7.78;69.09
79024;DHT22;70306;44.764;37.688;2024-02-23T00:32:46;7.72;69.05
79024;DHT22;70306;44.764;37.688;2024-02-23T00:33:49;7.68;69.10
79024;DHT22;70306;44.764;37.688;2024-02-23T00:34:51;7.65;69.29
79024;DHT22;70306;44.764;37.688;2024-02-23T00:35:53;7.65;69.35
79024;DHT22;70306;44.764;37.688;2024-02-23T00:36:55;7.65;69.42
79024;DHT22;70306;44.764;37.688;2024-02-23T00:37:57;7.65;69.29
79024;DHT22;70306;44.764;37.688;2024-02-23T00:38:59;7.61;68.96
79024;DHT22;70306;44.764;37.688;2024-02-23T00:40:04;7.61;69.16
79024;DHT22;70306;44.764;37.688;2024-02-23T00:41:07;7.57;69.25
79024;DHT22;70306;44.764;37.688;2024-02-23T00:42:09;7.54;69.44
79024;DHT22;70306;44.764;37.688;2024-02-23T00:43:11;7.51;69.50
79024;DHT22;70306;44.764;37.688;2024-02-23T00:44:13;7.47;69.54
79024;DHT22;70306;44.764;37.688;2024-02-23T00:45:15;7.46;69.80
79024;DHT22;70306;44.764;37.688;2024-02-23T00:46:17;7.47;69.89
79024;DHT22;70306;44.764;37.688;2024-02-23T00:47:19;7.46;69.94
79024;DHT22;70306;44.764;37.688;2024-02-23T00:48:21;7.48;70.00
79024;DHT22;70306;44.764;37.688;2024-02-23T00:49:24;7.48;69.92
79024;DHT22;70306;44.764;37.688;2024-02-23T00:50:26;7.47;69.69
79024;DHT22;70306;44.764;37.688;2024-02-23T00:51:28;7.48;69.83
79024;DHT22;70306;44.764;37.688;2024-02-23T00:52:30;7.43;69.81
79024;DHT22;70306;44.764;37.688;2024-02-23T00:53:32;7.41;69.95
79024;DHT22;70306;44.764;37.688;2024-02-23T00:54:34;7.43;70.03
79024;DHT22;70306;44.764;37.688;2024-02-23T00:55:36;7.43;70.05
79024;DHT22;70306;44.764;37.688;2024-02-23T00:56:38;7.41;70.22
79024;DHT22;70306;44.764;37.688;2024-02-23T00:57:40;7.46;70.20
79024;DHT22;70306;44.764;37.688;2024-02-23T00:58:42;7.46;70.20
79024;DHT22;70306;44.764;37.688;2024-02-23T00:59:44;7.50;70.02
79024;DHT22;70306;44.764;37.688;2024-02-23T01:00:47;7.50;70.04
79024;DHT22;70306;44.764;37.688;2024-02-23T01:01:49;7.47;70.03
79024;DHT22;70306;44.764;37.688;2024-02-23T01:02:51;7.51;70.15
79024;DHT22;70306;44.764;37.688;2024-02-23T01:03:53;7.52;70.36
79024;DHT22;70306;44.764;37.688;2024-02-23T01:04:55;7.52;70.28
79024;DHT22;70306;44.764;37.688;2024-02-23T01:05:58;7.55;70.28
79024;DHT22;70306;44.764;37.688;2024-02-23T01:07:00;7.54;70.25
79024;DHT22;70306;44.764;37.688;2024-02-23T01:08:03;7.52;70.40
79024;DHT22;70306;44.764;37.688;2024-02-23T01:09:05;7.54;70.31
79024;DHT22;70306;44.764;37.688;2024-02-23T01:10:07;7.52;70.63
79024;DHT22;70306;44.764;37.688;2024-02-23T01:11:09;7.54;70.50
79024;DHT22;70306;44.764;37.688;2024-02-23T01:12:11;7.51;70.62
79024;DHT22;70306;44.764;37.688;2024-02-23T01:13:13;7.52;71.05
79024;DHT22;70306;44.764;37.688;2024-02-23T01:14:15;7.50;70.91
79024;DHT22;70306;44.764;37.688;2024-02-23T01:15:17;7.47;71.03
79024;DHT22;70306;44.764;37.688;2024-02-23T01:16:19;7.46;71.07
79024;DHT22;70306;44.764;37.688;2024-02-23T01:17:21;7.46;71.09
79024;DHT22;70306;44.764;37.688;2024-02-23T01:18:23;7.43;71.19
79024;DHT22;70306;44.764;37.688;2024-02-23T01:19:25;7.44;71.38
79024;DHT22;70306;44.764;37.688;2024-02-23T01:20:28;7.44;71.41
79024;DHT22;70306;44.764;37.688;2024-02-23T01:21:30;7.41;71.43
79024;DHT22;70306;44.764;37.688;2024-02-23T01:22:32;7.44;71.47
79024;DHT22;70306;44.764;37.688;2024-02-23T01:23:34;7.47;71.61
79024;DHT22;70306;44.764;37.688;2024-02-23T01:24:36;7.46;71.62
79024;DHT22;70306;44.764;37.688;2024-02-23T01:25:38;7.46;71.67
79024;DHT22;70306;44.764;37.688;2024-02-23T01:26:40;7.46;71.74
79024;DHT22;70306;44.764;37.688;2024-02-23T01:27:43;7.44;71.89
79024;DHT22;70306;44.764;37.688;2024-02-23T01:28:48;7.40;72.40
79024;DHT22;70306;44.764;37.688;2024-02-23T01:29:50;7.37;72.57
79024;DHT22;70306;44.764;37.688;2024-02-23T01:30:52;7.35;72.65
79024;DHT22;70306;44.764;37.688;2024-02-23T01:31:54;7.34;72.75
79024;DHT22;70306;44.764;37.688;2024-02-23T01:32:56;7.34;72.86
79024;DHT22;70306;44.764;37.688;2024-02-23T01:33:58;7.38;72.89
79024;DHT22;70306;44.764;37.688;2024-02-23T01:35:00;7.40;72.94
79024;DHT22;70306;44.764;37.688;2024-02-23T01:36:02;7.41;72.79
79024;DHT22;70306;44.764;37.688;2024-02-23T01:37:04;7.46;72.63
79024;DHT22;70306;44.764;37.688;2024-02-23T01:38:06;7.46;72.86
79024;DHT22;70306;44.764;37.688;2024-02-23T01:39:08;7.48;72.86
79024;DHT22;70306;44.764;37.688;2024-02-23T01:40:11;7.48;72.84
79024;DHT22;70306;44.764;37.688;2024-02-23T01:41:14;7.51;73.05
79024;DHT22;70306;44.764;37.688;2024-02-23T01:42:16;7.51;72.96
79024;DHT22;70306;44.764;37.688;2024-02-23T01:43:19;7.55;72.98
79024;DHT22;70306;44.764;37.688;2024-02-23T01:44:21;7.51;73.37
79024;DHT22;70306;44.764;37.688;2024-02-23T01:45:23;7.52;73.66
79024;DHT22;70306;44.764;37.688;2024-02-23T01:46:25;7.57;73.36
79024;DHT22;70306;44.764;37.688;2024-02-23T01:47:29;7.57;73.20
79024;DHT22;70306;44.764;37.688;2024-02-23T01:48:32;7.61;73.07
79024;DHT22;70306;44.764;37.688;2024-02-23T01:49:35;7.58;73.25
79024;DHT22;70306;44.764;37.688;2024-02-23T01:50:38;7.57;73.39
79024;DHT22;70306;44.764;37.688;2024-02-23T01:51:40;7.58;73.51
79024;DHT22;70306;44.764;37.688;2024-02-23T01:52:42;7.58;73.47
79024;DHT22;70306;44.764;37.688;2024-02-23T01:53:44;7.58;73.53
79024;DHT22;70306;44.764;37.688;2024-02-23T01:54:47;7.60;73.61
79024;DHT22;70306;44.764;37.688;2024-02-23T01:55:49;7.62;73.69
79024;DHT22;70306;44.764;37.688;2024-02-23T01:56:51;7.64;73.71
79024;DHT22;70306;44.764;37.688;2024-02-23T01:57:54;7.62;73.57
79024;DHT22;70306;44.764;37.688;2024-02-23T01:58:56;7.62;73.60
79024;DHT22;70306;44.764;37.688;2024-02-23T01:59:58;7.65;73.60
79024;DHT22;70306;44.764;37.688;2024-02-23T02:01:02;7.65;73.50
79024;DHT22;70306;44.764;37.688;2024-02-23T02:02:05;7.65;73.52
79024;DHT22;70306;44.764;37.688;2024-02-23T02:03:07;7.62;73.65
79024;DHT22;70306;44.764;37.688;2024-02-23T02:04:09;7.64;73.91
79024;DHT22;70306;44.764;37.688;2024-02-23T02:05:12;7.67;73.97
79024;DHT22;70306;44.764;37.688;2024-02-23T02:06:14;7.67;73.91
79024;DHT22;70306;44.764;37.688;2024-02-23T02:07:16;7.67;73.63
79024;DHT22;70306;44.764;37.688;2024-02-23T02:08:20;7.69;73.47
79024;DHT22;70306;44.764;37.688;2024-02-23T02:09:22;7.68;73.69
79024;DHT22;70306;44.764;37.688;2024-02-23T02:10:25;7.69;74.03
79024;DHT22;70306;44.764;37.688;2024-02-23T02:11:28;7.68;74.10
79024;DHT22;70306;44.764;37.688;2024-02-23T02:12:30;7.71;74.07
79024;DHT22;70306;44.764;37.688;2024-02-23T02:13:32;7.69;73.88
79024;DHT22;70306;44.764;37.688;2024-02-23T02:14:34;7.69;73.88
79024;DHT22;70306;44.764;37.688;2024-02-23T02:15:36;7.72;73.87
79024;DHT22;70306;44.764;37.688;2024-02-23T02:16:39;7.72;74.01
79024;DHT22;70306;44.764;37.688;2024-02-23T02:17:41;7.72;74.35
79024;DHT22;70306;44.764;37.688;2024-02-23T02:18:43;7.72;74.23
79024;DHT22;70306;44.764;37.688;2024-02-23T02:19:48;7.75;74.25
79024;DHT22;70306;44.764;37.688;2024-02-23T02:20:59;7.77;74.09
79024;DHT22;70306;44.764;37.688;2024-02-23T02:22:01;7.75;73.87
79024;DHT22;70306;44.764;37.688;2024-02-23T02:23:03;7.75;73.64
79024;DHT22;70306;44.764;37.688;2024-02-23T02:24:06;7.77;73.90
79024;DHT22;70306;44.764;37.688;2024-02-23T02:25:08;7.78;73.81
79024;DHT22;70306;44.764;37.688;2024-02-23T02:26:10;7.77;73.83
79024;DHT22;70306;44.764;37.688;2024-02-23T02:27:12;7.78;73.85
79024;DHT22;70306;44.764;37.688;2024-02-23T02:28:14;7.77;73.93
79024;DHT22;70306;44.764;37.688;2024-02-23T02:29:16;7.78;73.89
79024;DHT22;70306;44.764;37.688;2024-02-23T02:30:18;7.81;73.90
79024;DHT22;70306;44.764;37.688;2024-02-23T02:31:21;7.81;74.08
79024;DHT22;70306;44.764;37.688;2024-02-23T02:32:23;7.82;74.08
79024;DHT22;70306;44.764;37.688;2024-02-23T02:33:25;7.81;74.05
79024;DHT22;70306;44.764;37.688;2024-02-23T02:34:27;7.81;73.87
79024;DHT22;70306;44.764;37.688;2024-02-23T02:35:30;7.78;73.89
79024;DHT22;70306;44.764;37.688;2024-02-23T02:36:32;7.75;73.82
79024;DHT22;70306;44.764;37.688;2024-02-23T02:37:34;7.77;73.99
79024;DHT22;70306;44.764;37.688;2024-02-23T02:38:36;7.77;73.94
79024;DHT22;70306;44.764;37.688;2024-02-23T02:39:38;7.79;73.73
79024;DHT22;70306;44.764;37.688;2024-02-23T02:40:40;7.77;73.65
79024;DHT22;70306;44.764;37.688;2024-02-23T02:41:43;7.79;73.50
79024;DHT22;70306;44.764;37.688;2024-02-23T02:42:46;7.79;73.33
79024;DHT22;70306;44.764;37.688;2024-02-23T02:43:48;7.79;73.27
79024;DHT22;70306;44.764;37.688;2024-02-23T02:44:50;7.82;73.40
79024;DHT22;70306;44.764;37.688;2024-02-23T02:45:52;7.85;73.25
79024;DHT22;70306;44.764;37.688;2024-02-23T02:46:54;7.81;73.27
79024;DHT22;70306;44.764;37.688;2024-02-23T02:47:56;7.82;73.08
79024;DHT22;70306;44.764;37.688;2024-02-23T02:48:58;7.83;72.91
79024;DHT22;70306;44.764;37.688;2024-02-23T02:50:00;7.82;72.99
79024;DHT22;70306;44.764;37.688;2024-02-23T02:51:02;7.83;73.04
79024;DHT22;70306;44.764;37.688;2024-02-23T02:52:04;7.82;73.27
79024;DHT22;70306;44.764;37.688;2024-02-23T02:53:06;7.82;73.35
79024;DHT22;70306;44.764;37.688;2024-02-23T02:54:08;7.85;73.36
79024;DHT22;70306;44.764;37.688;2024-02-23T02:55:10;7.83;73.40
79024;DHT22;70306;44.764;37.688;2024-02-23T02:56:12;7.81;73.31
79024;DHT22;70306;44.764;37.688;2024-02-23T02:57:14;7.77;73.62
79024;DHT22;70306;44.764;37.688;2024-02-23T02:58:16;7.75;73.79
79024;DHT22;70306;44.764;37.688;2024-02-23T02:59:18;7.74;73.96
79024;DHT22;70306;44.764;37.688;2024-02-23T03:00:20;7.77;74.07
79024;DHT22;70306;44.764;37.688;2024-02-23T03:01:22;7.75;73.88
79024;DHT22;70306;44.764;37.688;2024-02-23T03:02:25;7.75;73.81
79024;DHT22;70306;44.764;37.688;2024-02-23T03:03:27;7.71;73.78
79024;DHT22;70306;44.764;37.688;2024-02-23T03:04:29;7.69;73.80
79024;DHT22;70306;44.764;37.688;2024-02-23T03:05:31;7.72;73.87
79024;DHT22;70306;44.764;37.688;2024-02-23T03:06:33;7.71;73.75
79024;DHT22;70306;44.764;37.688;2024-02-23T03:07:35;7.69;73.60
79024;DHT22;70306;44.764;37.688;2024-02-23T03:08:37;7.68;73.66
79024;DHT22;70306;44.764;37.688;2024-02-23T03:09:39;7.62;74.04
79024;DHT22;70306;44.764;37.688;2024-02-23T03:10:41;7.60;74.15
79024;DHT22;70306;44.764;37.688;2024-02-23T03:11:43;7.55;74.51
79024;DHT22;70306;44.764;37.688;2024-02-23T03:12:46;7.51;74.64
79024;DHT22;70306;44.764;37.688;2024-02-23T03:13:48;7.50;74.65
79024;DHT22;70306;44.764;37.688;2024-02-23T03:14:50;7.48;74.66
79024;DHT22;70306;44.764;37.688;2024-02-23T03:15:52;7.46;74.76
79024;DHT22;70306;44.764;37.688;2024-02-23T03:16:54;7.47;74.83
79024;DHT22;70306;44.764;37.688;2024-02-23T03:17:57;7.46;74.83
79024;DHT22;70306;44.764;37.688;2024-02-23T03:18:59;7.48;74.92
79024;DHT22;70306;44.764;37.688;2024-02-23T03:20:02;7.48;74.83
79024;DHT22;70306;44.764;37.688;2024-02-23T03:21:07;7.51;74.85
79024;DHT22;70306;44.764;37.688;2024-02-23T03:22:11;7.47;74.81
79024;DHT22;70306;44.764;37.688;2024-02-23T03:23:13;7.50;74.66
79024;DHT22;70306;44.764;37.688;2024-02-23T03:24:15;7.47;74.65
79024;DHT22;70306;44.764;37.688;2024-02-23T03:25:17;7.48;74.60
79024;DHT22;70306;44.764;37.688;2024-02-23T03:26:19;7.44;74.69
79024;DHT22;70306;44.764;37.688;2024-02-23T03:27:27;7.48;74.65
79024;DHT22;70306;44.764;37.688;2024-02-23T03:28:29;7.41;74.70
79024;DHT22;70306;44.764;37.688;2024-02-23T03:29:31;7.38;74.62
79024;DHT22;70306;44.764;37.688;2024-02-23T03:30:33;7.38;74.70
79024;DHT22;70306;44.764;37.688;2024-02-23T03:31:37;7.37;74.57
79024;DHT22;70306;44.764;37.688;2024-02-23T03:32:39;7.37;74.65
79024;DHT22;70306;44.764;37.688;2024-02-23T03:33:41;7.31;74.63
79024;DHT22;70306;44.764;37.688;2024-02-23T03:34:43;7.31;74.76
79024;DHT22;70306;44.764;37.688;2024-02-23T03:35:45;7.28;74.81
79024;DHT22;70306;44.764;37.688;2024-02-23T03:36:47;7.27;74.88
79024;DHT22;70306;44.764;37.688;2024-02-23T03:37:50;7.23;74.94
79024;DHT22;70306;44.764;37.688;2024-02-23T03:38:51;7.23;74.92
79024;DHT22;70306;44.764;37.688;2024-02-23T03:39:54;7.22;74.97
79024;DHT22;70306;44.764;37.688;2024-02-23T03:40:56;7.15;74.99
79024;DHT22;70306;44.764;37.688;2024-02-23T03:41:58;7.10;75.02
79024;DHT22;70306;44.764;37.688;2024-02-23T03:43:00;7.08;75.17
79024;DHT22;70306;44.764;37.688;2024-02-23T03:44:02;7.06;75.32
79024;DHT22;70306;44.764;37.688;2024-02-23T03:45:05;7.05;75.24
79024;DHT22;70306;44.764;37.688;2024-02-23T03:46:07;7.00;75.24
79024;DHT22;70306;44.764;37.688;2024-02-23T03:47:09;6.98;75.37
79024;DHT22;70306;44.764;37.688;2024-02-23T03:48:11;6.99;75.39
79024;DHT22;70306;44.764;37.688;2024-02-23T03:49:13;6.92;75.31
79024;DHT22;70306;44.764;37.688;2024-02-23T03:50:15;6.93;75.41
79024;DHT22;70306;44.764;37.688;2024-02-23T03:51:17;6.89;75.51
79024;DHT22;70306;44.764;37.688;2024-02-23T03:52:19;6.91;75.59
79024;DHT22;70306;44.764;37.688;2024-02-23T03:53:21;6.88;75.61
79024;DHT22;70306;44.764;37.688;2024-02-23T03:54:23;6.89;75.77
79024;DHT22;70306;44.764;37.688;2024-02-23T03:55:25;6.89;75.65
79024;DHT22;70306;44.764;37.688;2024-02-23T03:56:27;6.91;75.65
79024;DHT22;70306;44.764;37.688;2024-02-23T03:57:29;6.89;75.63
79024;DHT22;70306;44.764;37.688;2024-02-23T03:58:31;6.88;75.60
79024;DHT22;70306;44.764;37.688;2024-02-23T03:59:36;6.89;75.67
79024;DHT22;70306;44.764;37.688;2024-02-23T04:00:39;6.89;75.53
79024;DHT22;70306;44.764;37.688;2024-02-23T04:01:41;6.89;75.57
79024;DHT22;70306;44.764;37.688;2024-02-23T04:02:43;6.91;75.34
79024;DHT22;70306;44.764;37.688;2024-02-23T04:03:45;6.92;75.25
79024;DHT22;70306;44.764;37.688;2024-02-23T04:04:48;6.92;74.95
79024;DHT22;70306;44.764;37.688;2024-02-23T04:05:50;6.88;74.92
79024;DHT22;70306;44.764;37.688;2024-02-23T04:06:52;6.85;74.97
79024;DHT22;70306;44.764;37.688;2024-02-23T04:07:54;6.84;75.15
79024;DHT22;70306;44.764;37.688;2024-02-23T04:08:56;6.87;74.97
79024;DHT22;70306;44.764;37.688;2024-02-23T04:09:59;6.85;74.86
79024;DHT22;70306;44.764;37.688;2024-02-23T04:11:01;6.78;74.93
79024;DHT22;70306;44.764;37.688;2024-02-23T04:12:03;6.71;75.09
79024;DHT22;70306;44.764;37.688;2024-02-23T04:13:05;6.71;75.24
79024;DHT22;70306;44.764;37.688;2024-02-23T04:14:07;6.67;75.24
79024;DHT22;70306;44.764;37.688;2024-02-23T04:15:10;6.64;75.18
79024;DHT22;70306;44.764;37.688;2024-02-23T04:16:12;6.58;75.26
79024;DHT22;70306;44.764;37.688;2024-02-23T04:17:14;6.57;75.33
79024;DHT22;70306;44.764;37.688;2024-02-23T04:18:16;6.55;75.74
79024;DHT22;70306;44.764;37.688;2024-02-23T04:19:18;6.60;75.94
79024;DHT22;70306;44.764;37.688;2024-02-23T04:20:21;6.60;75.70
79024;DHT22;70306;44.764;37.688;2024-02-23T04:21:23;6.57;75.28
79024;DHT22;70306;44.764;37.688;2024-02-23T04:22:25;6.53;75.36
79024;DHT22;70306;44.764;37.688;2024-02-23T04:23:27;6.48;75.37
79024;DHT22;70306;44.764;37.688;2024-02-23T04:24:29;6.44;75.36
79024;DHT22;70306;44.764;37.688;2024-02-23T04:25:31;6.41;75.59
79024;DHT22;70306;44.764;37.688;2024-02-23T04:26:33;6.41;75.69
79024;DHT22;70306;44.764;37.688;2024-02-23T04:27:35;6.40;75.63
79024;DHT22;70306;44.764;37.688;2024-02-23T04:28:39;6.38;75.66
79024;DHT22;70306;44.764;37.688;2024-02-23T04:29:41;6.36;75.51
79024;DHT22;70306;44.764;37.688;2024-02-23T04:30:43;6.30;75.85
79024;DHT22;70306;44.764;37.688;2024-02-23T04:31:45;6.30;75.97
79024;DHT22;70306;44.764;37.688;2024-02-23T04:32:47;6.28;75.91
79024;DHT22;70306;44.764;37.688;2024-02-23T04:33:49;6.28;75.83
79024;DHT22;70306;44.764;37.688;2024-02-23T04:34:51;6.25;75.93
79024;DHT22;70306;44.764;37.688;2024-02-23T04:35:53;6.28;75.63
79024;DHT22;70306;44.764;37.688;2024-02-23T04:36:55;6.22;75.54
79024;DHT22;70306;44.764;37.688;2024-02-23T04:37:57;6.18;75.48
79024;DHT22;70306;44.764;37.688;2024-02-23T04:38:59;6.12;75.58
79024;DHT22;70306;44.764;37.688;2024-02-23T04:40:01;6.08;75.57
79024;DHT22;70306;44.764;37.688;2024-02-23T04:41:04;6.02;75.72
79024;DHT22;70306;44.764;37.688;2024-02-23T04:42:06;5.92;75.90
79024;DHT22;70306;44.764;37.688;2024-02-23T04:43:10;5.91;76.15
79024;DHT22;70306;44.764;37.688;2024-02-23T04:44:12;5.87;76.39
79024;DHT22;70306;44.764;37.688;2024-02-23T04:45:14;5.87;76.40
79024;DHT22;70306;44.764;37.688;2024-02-23T04:46:16;5.85;76.53
79024;DHT22;70306;44.764;37.688;2024-02-23T04:47:18;5.81;76.65
79024;DHT22;70306;44.764;37.688;2024-02-23T04:48:20;5.83;76.88
79024;DHT22;70306;44.764;37.688;2024-02-23T04:49:22;5.84;76.81
79024;DHT22;70306;44.764;37.688;2024-02-23T04:50:24;5.83;76.71
79024;DHT22;70306;44.764;37.688;2024-02-23T04:51:26;5.79;76.70
79024;DHT22;70306;44.764;37.688;2024-02-23T04:52:28;5.78;76.65
79024;DHT22;70306;44.764;37.688;2024-02-23T04:53:31;5.75;76.89
79024;DHT22;70306;44.764;37.688;2024-02-23T04:54:33;5.77;76.64
79024;DHT22;70306;44.764;37.688;2024-02-23T04:55:35;5.73;76.76
79024;DHT22;70306;44.764;37.688;2024-02-23T04:56:37;5.71;76.80
79024;DHT22;70306;44.764;37.688;2024-02-23T04:57:39;5.71;76.82
79024;DHT22;70306;44.764;37.688;2024-02-23T04:58:41;5.68;77.05
79024;DHT22;70306;44.764;37.688;2024-02-23T04:59:44;5.68;76.98
79024;DHT22;70306;44.764;37.688;2024-02-23T05:00:46;5.67;77.22
79024;DHT22;70306;44.764;37.688;2024-02-23T05:01:48;5.68;77.29
79024;DHT22;70306;44.764;37.688;2024-02-23T05:02:50;5.67;77.45
79024;DHT22;70306;44.764;37.688;2024-02-23T05:03:52;5.68;77.60
79024;DHT22;70306;44.764;37.688;2024-02-23T05:04:54;5.70;77.79
79024;DHT22;70306;44.764;37.688;2024-02-23T05:05:56;5.71;77.86
79024;DHT22;70306;44.764;37.688;2024-02-23T05:06:59;5.73;77.99
79024;DHT22;70306;44.764;37.688;2024-02-23T05:08:01;5.77;77.94
79024;DHT22;70306;44.764;37.688;2024-02-23T05:09:03;5.79;77.81
79024;DHT22;70306;44.764;37.688;2024-02-23T05:10:05;5.79;77.77
79024;DHT22;70306;44.764;37.688;2024-02-23T05:11:07;5.83;77.97
79024;DHT22;70306;44.764;37.688;2024-02-23T05:12:11;5.85;78.09
79024;DHT22;70306;44.764;37.688;2024-02-23T05:13:13;5.88;78.14
79024;DHT22;70306;44.764;37.688;2024-02-23T05:14:16;5.88;78.11
79024;DHT22;70306;44.764;37.688;2024-02-23T05:15:18;5.91;78.02
79024;DHT22;70306;44.764;37.688;2024-02-23T05:16:20;5.95;77.96
79024;DHT22;70306;44.764;37.688;2024-02-23T05:17:22;5.97;77.98
79024;DHT22;70306;44.764;37.688;2024-02-23T05:18:24;6.01;78.04
79024;DHT22;70306;44.764;37.688;2024-02-23T05:19:27;6.03;78.01
79024;DHT22;70306;44.764;37.688;2024-02-23T05:20:28;6.06;78.15
79024;DHT22;70306;44.764;37.688;2024-02-23T05:21:31;6.12;78.06
79024;DHT22;70306;44.764;37.688;2024-02-23T05:22:33;6.18;78.08
79024;DHT22;70306;44.764;37.688;2024-02-23T05:23:35;6.22;78.16
79024;DHT22;70306;44.764;37.688;2024-02-23T05:24:37;6.23;78.19
79024;DHT22;70306;44.764;37.688;2024-02-23T05:25:39;6.28;78.13
79024;DHT22;70306;44.764;37.688;2024-02-23T05:26:43;6.29;78.19
79024;DHT22;70306;44.764;37.688;2024-02-23T05:27:45;6.34;78.32
79024;DHT22;70306;44.764;37.688;2024-02-23T05:28:48;6.34;78.35
79024;DHT22;70306;44.764;37.688;2024-02-23T05:29:50;6.41;78.43
79024;DHT22;70306;44.764;37.688;2024-02-23T05:30:52;6.51;78.40
79024;DHT22;70306;44.764;37.688;2024-02-23T05:31:54;6.58;78.31
79024;DHT22;70306;44.764;37.688;2024-02-23T05:32:57;6.61;78.21
79024;DHT22;70306;44.764;37.688;2024-02-23T05:34:01;6.68;78.17
79024;DHT22;70306;44.764;37.688;2024-02-23T05:35:03;6.72;78.12
79024;DHT22;70306;44.764;37.688;2024-02-23T05:36:05;6.80;78.01
79024;DHT22;70306;44.764;37.688;2024-02-23T05:37:08;6.87;77.97
79024;DHT22;70306;44.764;37.688;2024-02-23T05:38:10;6.92;77.96
79024;DHT22;70306;44.764;37.688;2024-02-23T05:39:13;7.00;77.88
79024;DHT22;70306;44.764;37.688;2024-02-23T05:40:16;7.05;77.64
79024;DHT22;70306;44.764;37.688;2024-02-23T05:41:18;7.10;77.59
79024;DHT22;70306;44.764;37.688;2024-02-23T05:42:21;7.16;77.62
79024;DHT22;70306;44.764;37.688;2024-02-23T05:43:23;7.22;77.60
79024;DHT22;70306;44.764;37.688;2024-02-23T05:44:25;7.28;77.59
79024;DHT22;70306;44.764;37.688;2024-02-23T05:45:27;7.34;77.51
79024;DHT22;70306;44.764;37.688;2024-02-23T05:46:29;7.41;77.52
79024;DHT22;70306;44.764;37.688;2024-02-23T05:47:31;7.44;77.45
79024;DHT22;70306;44.764;37.688;2024-02-23T05:48:33;7.50;77.29
79024;DHT22;70306;44.764;37.688;2024-02-23T05:49:35;7.55;77.14
79024;DHT22;70306;44.764;37.688;2024-02-23T05:50:37;7.61;77.11
79024;DHT22;70306;44.764;37.688;2024-02-23T05:51:39;7.68;77.21
79024;DHT22;70306;44.764;37.688;2024-02-23T05:52:41;7.74;77.06
79024;DHT22;70306;44.764;37.688;2024-02-23T05:53:44;7.78;76.92
79024;DHT22;70306;44.764;37.688;2024-02-23T05:54:46;7.83;76.91
79024;DHT22;70306;44.764;37.688;2024-02-23T05:55:48;7.88;76.77
79024;DHT22;70306;44.764;37.688;2024-02-23T05:56:50;7.93;76.77
79024;DHT22;70306;44.764;37.688;2024-02-23T05:57:52;7.96;76.56
79024;DHT22;70306;44.764;37.688;2024-02-23T05:58:54;7.97;76.49
79024;DHT22;70306;44.764;37.688;2024-02-23T05:59:56;7.96;76.34
79024;DHT22;70306;44.764;37.688;2024-02-23T06:00:58;7.93;76.19
79024;DHT22;70306;44.764;37.688;2024-02-23T06:02:00;7.95;76.14
79024;DHT22;70306;44.764;37.688;2024-02-23T06:03:03;7.92;76.56
79024;DHT22;70306;44.764;37.688;2024-02-23T06:04:05;7.93;76.84
79024;DHT22;70306;44.764;37.688;2024-02-23T06:05:07;7.90;77.12
79024;DHT22;70306;44.764;37.688;2024-02-23T06:06:09;7.86;76.86
79024;DHT22;70306;44.764;37.688;2024-02-23T06:07:13;7.89;76.91
79024;DHT22;70306;44.764;37.688;2024-02-23T06:08:17;7.95;76.98
79024;DHT22;70306;44.764;37.688;2024-02-23T06:09:19;7.99;76.73
79024;DHT22;70306;44.764;37.688;2024-02-23T06:10:21;8.07;76.39
79024;DHT22;70306;44.764;37.688;2024-02-23T06:11:23;8.10;76.41
79024;DHT22;70306;44.764;37.688;2024-02-23T06:12:25;8.13;75.88
79024;DHT22;70306;44.764;37.688;2024-02-23T06:13:28;8.17;75.39
79024;DHT22;70306;44.764;37.688;2024-02-23T06:14:30;8.10;75.19
79024;DHT22;70306;44.764;37.688;2024-02-23T06:15:32;8.10;75.46
79024;DHT22;70306;44.764;37.688;2024-02-23T06:16:34;8.14;75.56
79024;DHT22;70306;44.764;37.688;2024-02-23T06:17:37;8.16;75.34
79024;DHT22;70306;44.764;37.688;2024-02-23T06:18:41;8.23;75.32
79024;DHT22;70306;44.764;37.688;2024-02-23T06:19:43;8.23;75.05
79024;DHT22;70306;44.764;37.688;2024-02-23T06:20:45;8.24;74.91
79024;DHT22;70306;44.764;37.688;2024-02-23T06:21:48;8.24;74.70
79024;DHT22;70306;44.764;37.688;2024-02-23T06:22:51;8.26;75.02
79024;DHT22;70306;44.764;37.688;2024-02-23T06:23:53;8.29;74.98
79024;DHT22;70306;44.764;37.688;2024-02-23T06:24:55;8.33;74.96
79024;DHT22;70306;44.764;37.688;2024-02-23T06:25:57;8.36;75.22
79024;DHT22;70306;44.764;37.688;2024-02-23T06:26:59;8.38;75.38
79024;DHT22;70306;44.764;37.688;2024-02-23T06:28:01;8.42;75.24
79024;DHT22;70306;44.764;37.688;2024-02-23T06:29:03;8.45;75.48
79024;DHT22;70306;44.764;37.688;2024-02-23T06:30:07;8.51;75.52
79024;DHT22;70306;44.764;37.688;2024-02-23T06:31:10;8.51;75.38
79024;DHT22;70306;44.764;37.688;2024-02-23T06:32:12;8.55;75.60
79024;DHT22;70306;44.764;37.688;2024-02-23T06:33:14;8.54;75.73